sensor_id;sensor_type;location;lat;lon;timestamp;pressure;altitude;pressure_sealevel;temperature
20092;BMP180;10205;49.678;6.560;2022-08-19T00:01:17;99671.00;;;27.70
20092;BMP180;10205;49.678;6.560;2022-08-19T00:03:44;99674.00;;;27.60
20092;BMP180;10205;49.678;6.560;2022-08-19T00:06:12;99676.00;;;27.60
20092;BMP180;10205;49.678;6.560;2022-08-19T00:08:39;99685.00;;;27.60
20092;BMP180;10205;49.678;6.560;2022-08-19T00:11:06;99687.00;;;27.50
20092;BMP180;10205;49.678;6.560;2022-08-19T00:13:34;99687.00;;;27.50
20092;BMP180;10205;49.678;6.560;2022-08-19T00:16:03;99689.00;;;27.40
20092;BMP180;10205;49.678;6.560;2022-08-19T00:18:31;99679.00;;;27.40
20092;BMP180;10205;49.678;6.560;2022-08-19T00:20:59;99678.00;;;27.40
20092;BMP180;10205;49.678;6.560;2022-08-19T00:23:26;99669.00;;;27.30
20092;BMP180;10205;49.678;6.560;2022-08-19T00:25:54;99667.00;;;27.30
20092;BMP180;10205;49.678;6.560;2022-08-19T00:28:21;99667.00;;;27.30
20092;BMP180;10205;49.678;6.560;2022-08-19T00:30:48;99658.00;;;27.30
20092;BMP180;10205;49.678;6.560;2022-08-19T00:33:19;99661.00;;;27.20
20092;BMP180;10205;49.678;6.560;2022-08-19T00:35:46;99663.00;;;27.20
20092;BMP180;10205;49.678;6.560;2022-08-19T00:38:16;99666.00;;;27.20
20092;BMP180;10205;49.678;6.560;2022-08-19T00:40:44;99661.00;;;27.10
20092;BMP180;10205;49.678;6.560;2022-08-19T00:43:13;99661.00;;;27.10
20092;BMP180;10205;49.678;6.560;2022-08-19T00:45:45;99665.00;;;27.10
20092;BMP180;10205;49.678;6.560;2022-08-19T00:48:13;99651.00;;;27.00
20092;BMP180;10205;49.678;6.560;2022-08-19T00:50:44;99654.00;;;27.00
20092;BMP180;10205;49.678;6.560;2022-08-19T00:53:14;99649.00;;;27.00
20092;BMP180;10205;49.678;6.560;2022-08-19T00:55:46;99636.00;;;27.00
20092;BMP180;10205;49.678;6.560;2022-08-19T00:58:22;99650.00;;;27.00
20092;BMP180;10205;49.678;6.560;2022-08-19T01:00:51;99649.00;;;26.90
20092;BMP180;10205;49.678;6.560;2022-08-19T01:03:20;99651.00;;;26.90
20092;BMP180;10205;49.678;6.560;2022-08-19T01:05:54;99652.00;;;26.90
20092;BMP180;10205;49.678;6.560;2022-08-19T01:08:22;99664.00;;;26.80
20092;BMP180;10205;49.678;6.560;2022-08-19T01:10:54;99662.00;;;26.80
20092;BMP180;10205;49.678;6.560;2022-08-19T01:13:26;99664.00;;;26.80
20092;BMP180;10205;49.678;6.560;2022-08-19T01:15:57;99662.00;;;26.80
20092;BMP180;10205;49.678;6.560;2022-08-19T01:18:27;99661.00;;;26.70
20092;BMP180;10205;49.678;6.560;2022-08-19T01:21:01;99642.00;;;26.70
20092;BMP180;10205;49.678;6.560;2022-08-19T01:23:30;99646.00;;;26.70
20092;BMP180;10205;49.678;6.560;2022-08-19T01:26:12;99645.00;;;26.70
20092;BMP180;10205;49.678;6.560;2022-08-19T01:28:41;99644.00;;;26.60
20092;BMP180;10205;49.678;6.560;2022-08-19T01:31:14;99638.00;;;26.60
20092;BMP180;10205;49.678;6.560;2022-08-19T01:33:42;99631.00;;;26.60
20092;BMP180;10205;49.678;6.560;2022-08-19T01:36:23;99642.00;;;26.60
20092;BMP180;10205;49.678;6.560;2022-08-19T01:38:52;99641.00;;;26.50
20092;BMP180;10205;49.678;6.560;2022-08-19T01:41:19;99647.00;;;26.50
20092;BMP180;10205;49.678;6.560;2022-08-19T01:43:49;99651.00;;;26.50
20092;BMP180;10205;49.678;6.560;2022-08-19T01:46:23;99645.00;;;26.40
20092;BMP180;10205;49.678;6.560;2022-08-19T01:48:50;99645.00;;;26.40
20092;BMP180;10205;49.678;6.560;2022-08-19T01:51:17;99645.00;;;26.40
20092;BMP180;10205;49.678;6.560;2022-08-19T01:53:48;99642.00;;;26.40
20092;BMP180;10205;49.678;6.560;2022-08-19T01:56:18;99642.00;;;26.30
20092;BMP180;10205;49.678;6.560;2022-08-19T01:58:50;99647.00;;;26.30
20092;BMP180;10205;49.678;6.560;2022-08-19T02:01:19;99653.00;;;26.30
20092;BMP180;10205;49.678;6.560;2022-08-19T02:03:46;99641.00;;;26.30
20092;BMP180;10205;49.678;6.560;2022-08-19T02:06:15;99640.00;;;26.20
20092;BMP180;10205;49.678;6.560;2022-08-19T02:08:43;99646.00;;;26.20
20092;BMP180;10205;49.678;6.560;2022-08-19T02:11:22;99644.00;;;26.20
20092;BMP180;10205;49.678;6.560;2022-08-19T02:13:49;99647.00;;;26.20
20092;BMP180;10205;49.678;6.560;2022-08-19T02:16:18;99646.00;;;26.20
20092;BMP180;10205;49.678;6.560;2022-08-19T02:18:46;99647.00;;;26.10
20092;BMP180;10205;49.678;6.560;2022-08-19T02:21:15;99653.00;;;26.10
20092;BMP180;10205;49.678;6.560;2022-08-19T02:23:43;99650.00;;;26.10
20092;BMP180;10205;49.678;6.560;2022-08-19T02:26:11;99649.00;;;26.00
20092;BMP180;10205;49.678;6.560;2022-08-19T02:28:40;99650.00;;;26.00
20092;BMP180;10205;49.678;6.560;2022-08-19T02:31:10;99655.00;;;26.00
20092;BMP180;10205;49.678;6.560;2022-08-19T02:33:38;99653.00;;;26.00
20092;BMP180;10205;49.678;6.560;2022-08-19T02:36:07;99658.00;;;26.00
20092;BMP180;10205;49.678;6.560;2022-08-19T02:38:35;99659.00;;;25.90
20092;BMP180;10205;49.678;6.560;2022-08-19T02:41:07;99655.00;;;25.90
20092;BMP180;10205;49.678;6.560;2022-08-19T02:43:36;99651.00;;;25.80
20092;BMP180;10205;49.678;6.560;2022-08-19T02:46:14;99654.00;;;25.80
20092;BMP180;10205;49.678;6.560;2022-08-19T02:48:43;99649.00;;;25.80
20092;BMP180;10205;49.678;6.560;2022-08-19T02:51:17;99658.00;;;25.80
20092;BMP180;10205;49.678;6.560;2022-08-19T02:53:46;99673.00;;;25.70
20092;BMP180;10205;49.678;6.560;2022-08-19T02:56:13;99674.00;;;25.70
20092;BMP180;10205;49.678;6.560;2022-08-19T02:58:41;99672.00;;;25.70
20092;BMP180;10205;49.678;6.560;2022-08-19T03:01:20;99676.00;;;25.70
20092;BMP180;10205;49.678;6.560;2022-08-19T03:03:47;99675.00;;;25.60
20092;BMP180;10205;49.678;6.560;2022-08-19T03:06:16;99680.00;;;25.60
20092;BMP180;10205;49.678;6.560;2022-08-19T03:08:46;99669.00;;;25.60
20092;BMP180;10205;49.678;6.560;2022-08-19T03:11:15;99669.00;;;25.60
20092;BMP180;10205;49.678;6.560;2022-08-19T03:13:43;99671.00;;;25.50
20092;BMP180;10205;49.678;6.560;2022-08-19T03:16:12;99659.00;;;25.50
20092;BMP180;10205;49.678;6.560;2022-08-19T03:18:39;99666.00;;;25.50
20092;BMP180;10205;49.678;6.560;2022-08-19T03:21:07;99668.00;;;25.40
20092;BMP180;10205;49.678;6.560;2022-08-19T03:23:35;99672.00;;;25.40
20092;BMP180;10205;49.678;6.560;2022-08-19T03:26:05;99654.00;;;25.40
20092;BMP180;10205;49.678;6.560;2022-08-19T03:28:33;99668.00;;;25.30
20092;BMP180;10205;49.678;6.560;2022-08-19T03:31:05;99665.00;;;25.30
20092;BMP180;10205;49.678;6.560;2022-08-19T03:33:35;99668.00;;;25.30
20092;BMP180;10205;49.678;6.560;2022-08-19T03:36:06;99668.00;;;25.30
20092;BMP180;10205;49.678;6.560;2022-08-19T03:38:36;99679.00;;;25.20
20092;BMP180;10205;49.678;6.560;2022-08-19T03:41:07;99689.00;;;25.20
20092;BMP180;10205;49.678;6.560;2022-08-19T03:43:37;99691.00;;;25.20
20092;BMP180;10205;49.678;6.560;2022-08-19T03:46:08;99701.00;;;25.20
20092;BMP180;10205;49.678;6.560;2022-08-19T03:48:40;99700.00;;;25.10
20092;BMP180;10205;49.678;6.560;2022-08-19T03:51:16;99705.00;;;25.10
20092;BMP180;10205;49.678;6.560;2022-08-19T03:53:43;99695.00;;;25.10
20092;BMP180;10205;49.678;6.560;2022-08-19T03:56:11;99685.00;;;25.10
20092;BMP180;10205;49.678;6.560;2022-08-19T03:58:39;99685.00;;;25.10
20092;BMP180;10205;49.678;6.560;2022-08-19T04:01:08;99689.00;;;25.00
20092;BMP180;10205;49.678;6.560;2022-08-19T04:03:38;99679.00;;;25.00
20092;BMP180;10205;49.678;6.560;2022-08-19T04:06:13;99684.00;;;25.00
20092;BMP180;10205;49.678;6.560;2022-08-19T04:08:42;99692.00;;;25.00
20092;BMP180;10205;49.678;6.560;2022-08-19T04:11:13;99693.00;;;24.90
20092;BMP180;10205;49.678;6.560;2022-08-19T04:13:41;99692.00;;;24.90
20092;BMP180;10205;49.678;6.560;2022-08-19T04:16:10;99709.00;;;24.90
20092;BMP180;10205;49.678;6.560;2022-08-19T04:18:40;99698.00;;;24.90
20092;BMP180;10205;49.678;6.560;2022-08-19T04:21:15;99701.00;;;24.80
20092;BMP180;10205;49.678;6.560;2022-08-19T04:23:43;99704.00;;;24.80
20092;BMP180;10205;49.678;6.560;2022-08-19T04:26:13;99698.00;;;24.80
20092;BMP180;10205;49.678;6.560;2022-08-19T04:28:41;99707.00;;;24.80
20092;BMP180;10205;49.678;6.560;2022-08-19T04:31:15;99699.00;;;24.80
20092;BMP180;10205;49.678;6.560;2022-08-19T04:33:44;99700.00;;;24.80
20092;BMP180;10205;49.678;6.560;2022-08-19T04:36:17;99697.00;;;24.70
20092;BMP180;10205;49.678;6.560;2022-08-19T04:38:46;99699.00;;;24.70
20092;BMP180;10205;49.678;6.560;2022-08-19T04:41:14;99695.00;;;24.70
20092;BMP180;10205;49.678;6.560;2022-08-19T04:43:59;99703.00;;;24.60
20092;BMP180;10205;49.678;6.560;2022-08-19T04:46:29;99704.00;;;24.60
20092;BMP180;10205;49.678;6.560;2022-08-19T04:49:00;99708.00;;;24.60
20092;BMP180;10205;49.678;6.560;2022-08-19T04:51:28;99705.00;;;24.60
20092;BMP180;10205;49.678;6.560;2022-08-19T04:53:57;99705.00;;;24.60
20092;BMP180;10205;49.678;6.560;2022-08-19T04:56:26;99705.00;;;24.50
20092;BMP180;10205;49.678;6.560;2022-08-19T04:58:55;99698.00;;;24.50
20092;BMP180;10205;49.678;6.560;2022-08-19T05:01:27;99694.00;;;24.50
20092;BMP180;10205;49.678;6.560;2022-08-19T05:03:57;99705.00;;;24.50
20092;BMP180;10205;49.678;6.560;2022-08-19T05:06:24;99702.00;;;24.40
20092;BMP180;10205;49.678;6.560;2022-08-19T05:08:52;99703.00;;;24.40
20092;BMP180;10205;49.678;6.560;2022-08-19T05:11:23;99707.00;;;24.40
20092;BMP180;10205;49.678;6.560;2022-08-19T05:13:52;99710.00;;;24.40
20092;BMP180;10205;49.678;6.560;2022-08-19T05:16:21;99708.00;;;24.40
20092;BMP180;10205;49.678;6.560;2022-08-19T05:18:49;99712.00;;;24.30
20092;BMP180;10205;49.678;6.560;2022-08-19T05:21:36;99712.00;;;24.30
20092;BMP180;10205;49.678;6.560;2022-08-19T05:24:23;99711.00;;;24.30
20092;BMP180;10205;49.678;6.560;2022-08-19T05:26:52;99711.00;;;24.30
20092;BMP180;10205;49.678;6.560;2022-08-19T05:29:25;99713.00;;;24.20
20092;BMP180;10205;49.678;6.560;2022-08-19T05:31:53;99712.00;;;24.20
20092;BMP180;10205;49.678;6.560;2022-08-19T05:34:23;99711.00;;;24.20
20092;BMP180;10205;49.678;6.560;2022-08-19T05:36:55;99718.00;;;24.20
20092;BMP180;10205;49.678;6.560;2022-08-19T05:39:26;99721.00;;;24.20
20092;BMP180;10205;49.678;6.560;2022-08-19T05:41:58;99727.00;;;24.20
20092;BMP180;10205;49.678;6.560;2022-08-19T05:44:28;99723.00;;;24.10
20092;BMP180;10205;49.678;6.560;2022-08-19T05:46:56;99723.00;;;24.10
20092;BMP180;10205;49.678;6.560;2022-08-19T05:49:24;99720.00;;;24.10
20092;BMP180;10205;49.678;6.560;2022-08-19T05:51:53;99709.00;;;24.10
20092;BMP180;10205;49.678;6.560;2022-08-19T05:54:22;99716.00;;;24.10
20092;BMP180;10205;49.678;6.560;2022-08-19T05:56:50;99714.00;;;24.10
20092;BMP180;10205;49.678;6.560;2022-08-19T05:59:19;99726.00;;;24.10
20092;BMP180;10205;49.678;6.560;2022-08-19T06:01:49;99736.00;;;24.10
20092;BMP180;10205;49.678;6.560;2022-08-19T06:04:18;99736.00;;;24.10
20092;BMP180;10205;49.678;6.560;2022-08-19T06:06:46;99741.00;;;24.00
20092;BMP180;10205;49.678;6.560;2022-08-19T06:09:15;99741.00;;;24.10
20092;BMP180;10205;49.678;6.560;2022-08-19T06:11:45;99737.00;;;24.10
20092;BMP180;10205;49.678;6.560;2022-08-19T06:14:18;99742.00;;;24.00
20092;BMP180;10205;49.678;6.560;2022-08-19T06:16:46;99740.00;;;24.00
20092;BMP180;10205;49.678;6.560;2022-08-19T06:19:16;99743.00;;;24.00
20092;BMP180;10205;49.678;6.560;2022-08-19T06:21:47;99744.00;;;24.10
20092;BMP180;10205;49.678;6.560;2022-08-19T06:24:19;99745.00;;;24.10
20092;BMP180;10205;49.678;6.560;2022-08-19T06:26:50;99739.00;;;24.10
20092;BMP180;10205;49.678;6.560;2022-08-19T06:29:20;99752.00;;;24.10
20092;BMP180;10205;49.678;6.560;2022-08-19T06:31:51;99759.00;;;24.00
20092;BMP180;10205;49.678;6.560;2022-08-19T06:34:19;99761.00;;;24.00
20092;BMP180;10205;49.678;6.560;2022-08-19T06:36:49;99765.00;;;24.00
20092;BMP180;10205;49.678;6.560;2022-08-19T06:39:22;99758.00;;;24.10
20092;BMP180;10205;49.678;6.560;2022-08-19T06:41:53;99763.00;;;24.10
20092;BMP180;10205;49.678;6.560;2022-08-19T06:44:24;99769.00;;;24.10
20092;BMP180;10205;49.678;6.560;2022-08-19T06:46:52;99773.00;;;24.10
20092;BMP180;10205;49.678;6.560;2022-08-19T06:49:19;99781.00;;;24.10
20092;BMP180;10205;49.678;6.560;2022-08-19T06:51:48;99787.00;;;24.10
20092;BMP180;10205;49.678;6.560;2022-08-19T06:54:18;99791.00;;;24.10
20092;BMP180;10205;49.678;6.560;2022-08-19T06:56:46;99792.00;;;24.10
20092;BMP180;10205;49.678;6.560;2022-08-19T06:59:16;99797.00;;;24.10
20092;BMP180;10205;49.678;6.560;2022-08-19T07:01:47;99801.00;;;24.20
20092;BMP180;10205;49.678;6.560;2022-08-19T07:04:19;99798.00;;;24.20
20092;BMP180;10205;49.678;6.560;2022-08-19T07:06:47;99801.00;;;24.20
20092;BMP180;10205;49.678;6.560;2022-08-19T07:09:18;99809.00;;;24.20
20092;BMP180;10205;49.678;6.560;2022-08-19T07:11:48;99798.00;;;24.30
20092;BMP180;10205;49.678;6.560;2022-08-19T07:14:19;99795.00;;;24.30
20092;BMP180;10205;49.678;6.560;2022-08-19T07:16:49;99799.00;;;24.30
20092;BMP180;10205;49.678;6.560;2022-08-19T07:19:19;99806.00;;;24.40
20092;BMP180;10205;49.678;6.560;2022-08-19T07:21:48;99795.00;;;24.40
20092;BMP180;10205;49.678;6.560;2022-08-19T07:24:21;99802.00;;;24.40
20092;BMP180;10205;49.678;6.560;2022-08-19T07:26:52;99796.00;;;24.40
20092;BMP180;10205;49.678;6.560;2022-08-19T07:29:21;99795.00;;;24.50
20092;BMP180;10205;49.678;6.560;2022-08-19T07:31:50;99798.00;;;24.50
20092;BMP180;10205;49.678;6.560;2022-08-19T07:34:17;99803.00;;;24.50
20092;BMP180;10205;49.678;6.560;2022-08-19T07:36:45;99804.00;;;24.60
20092;BMP180;10205;49.678;6.560;2022-08-19T07:39:17;99807.00;;;24.60
20092;BMP180;10205;49.678;6.560;2022-08-19T07:41:47;99804.00;;;24.60
20092;BMP180;10205;49.678;6.560;2022-08-19T07:44:16;99804.00;;;24.70
20092;BMP180;10205;49.678;6.560;2022-08-19T07:46:48;99806.00;;;24.70
20092;BMP180;10205;49.678;6.560;2022-08-19T07:49:16;99797.00;;;24.80
20092;BMP180;10205;49.678;6.560;2022-08-19T07:51:45;99802.00;;;24.80
20092;BMP180;10205;49.678;6.560;2022-08-19T07:54:13;99795.00;;;24.90
20092;BMP180;10205;49.678;6.560;2022-08-19T07:56:40;99796.00;;;24.90
20092;BMP180;10205;49.678;6.560;2022-08-19T07:59:09;99796.00;;;24.90
20092;BMP180;10205;49.678;6.560;2022-08-19T08:01:38;99800.00;;;25.00
20092;BMP180;10205;49.678;6.560;2022-08-19T08:04:07;99794.00;;;25.00
20092;BMP180;10205;49.678;6.560;2022-08-19T08:07:05;99798.00;;;25.00
20092;BMP180;10205;49.678;6.560;2022-08-19T08:09:52;99787.00;;;25.10
20092;BMP180;10205;49.678;6.560;2022-08-19T08:12:24;99785.00;;;25.10
20092;BMP180;10205;49.678;6.560;2022-08-19T08:14:59;99786.00;;;25.20
20092;BMP180;10205;49.678;6.560;2022-08-19T08:17:29;99788.00;;;25.30
20092;BMP180;10205;49.678;6.560;2022-08-19T08:19:57;99785.00;;;25.40
20092;BMP180;10205;49.678;6.560;2022-08-19T08:22:25;99785.00;;;25.40
20092;BMP180;10205;49.678;6.560;2022-08-19T08:25:13;99789.00;;;25.50
20092;BMP180;10205;49.678;6.560;2022-08-19T08:27:44;99788.00;;;25.60
20092;BMP180;10205;49.678;6.560;2022-08-19T08:30:15;99776.00;;;25.60
20092;BMP180;10205;49.678;6.560;2022-08-19T08:32:43;99787.00;;;25.70
20092;BMP180;10205;49.678;6.560;2022-08-19T08:35:14;99785.00;;;25.70
20092;BMP180;10205;49.678;6.560;2022-08-19T08:37:42;99791.00;;;25.80
20092;BMP180;10205;49.678;6.560;2022-08-19T08:40:19;99793.00;;;25.90
20092;BMP180;10205;49.678;6.560;2022-08-19T08:42:55;99794.00;;;25.90
20092;BMP180;10205;49.678;6.560;2022-08-19T08:45:30;99794.00;;;26.00
20092;BMP180;10205;49.678;6.560;2022-08-19T08:48:07;99787.00;;;26.10
20092;BMP180;10205;49.678;6.560;2022-08-19T08:50:43;99777.00;;;26.20
20092;BMP180;10205;49.678;6.560;2022-08-19T08:53:14;99787.00;;;26.20
20092;BMP180;10205;49.678;6.560;2022-08-19T08:55:44;99787.00;;;26.30
20092;BMP180;10205;49.678;6.560;2022-08-19T08:58:17;99792.00;;;26.40
20092;BMP180;10205;49.678;6.560;2022-08-19T09:00:49;99788.00;;;26.50
20092;BMP180;10205;49.678;6.560;2022-08-19T09:03:20;99783.00;;;26.50
20092;BMP180;10205;49.678;6.560;2022-08-19T09:06:00;99779.00;;;26.60
20092;BMP180;10205;49.678;6.560;2022-08-19T09:08:40;99775.00;;;26.70
20092;BMP180;10205;49.678;6.560;2022-08-19T09:11:19;99772.00;;;26.80
20092;BMP180;10205;49.678;6.560;2022-08-19T09:14:02;99767.00;;;26.90
20092;BMP180;10205;49.678;6.560;2022-08-19T09:16:35;99769.00;;;27.00
20092;BMP180;10205;49.678;6.560;2022-08-19T09:19:08;99764.00;;;27.10
20092;BMP180;10205;49.678;6.560;2022-08-19T09:21:36;99762.00;;;27.10
20092;BMP180;10205;49.678;6.560;2022-08-19T09:24:05;99750.00;;;27.20
20092;BMP180;10205;49.678;6.560;2022-08-19T09:26:33;99752.00;;;27.30
20092;BMP180;10205;49.678;6.560;2022-08-19T09:29:01;99756.00;;;27.40
20092;BMP180;10205;49.678;6.560;2022-08-19T09:31:31;99758.00;;;27.40
20092;BMP180;10205;49.678;6.560;2022-08-19T09:33:59;99760.00;;;27.50
20092;BMP180;10205;49.678;6.560;2022-08-19T09:36:31;99744.00;;;27.60
20092;BMP180;10205;49.678;6.560;2022-08-19T09:38:59;99753.00;;;27.70
20092;BMP180;10205;49.678;6.560;2022-08-19T09:41:27;99745.00;;;27.80
20092;BMP180;10205;49.678;6.560;2022-08-19T09:43:56;99754.00;;;27.90
20092;BMP180;10205;49.678;6.560;2022-08-19T09:46:27;99749.00;;;27.90
20092;BMP180;10205;49.678;6.560;2022-08-19T09:48:59;99751.00;;;28.00
20092;BMP180;10205;49.678;6.560;2022-08-19T09:51:27;99764.00;;;28.10
20092;BMP180;10205;49.678;6.560;2022-08-19T09:53:59;99759.00;;;28.20
20092;BMP180;10205;49.678;6.560;2022-08-19T09:56:28;99754.00;;;28.30
20092;BMP180;10205;49.678;6.560;2022-08-19T09:58:58;99755.00;;;28.30
20092;BMP180;10205;49.678;6.560;2022-08-19T10:01:28;99756.00;;;28.40
20092;BMP180;10205;49.678;6.560;2022-08-19T10:03:59;99753.00;;;28.50
20092;BMP180;10205;49.678;6.560;2022-08-19T10:06:29;99749.00;;;28.60
20092;BMP180;10205;49.678;6.560;2022-08-19T10:08:59;99746.00;;;28.60
20092;BMP180;10205;49.678;6.560;2022-08-19T10:11:26;99741.00;;;28.70
20092;BMP180;10205;49.678;6.560;2022-08-19T10:13:55;99738.00;;;28.80
20092;BMP180;10205;49.678;6.560;2022-08-19T10:16:23;99744.00;;;28.80
20092;BMP180;10205;49.678;6.560;2022-08-19T10:18:52;99746.00;;;28.90
20092;BMP180;10205;49.678;6.560;2022-08-19T10:21:25;99730.00;;;28.90
20092;BMP180;10205;49.678;6.560;2022-08-19T10:23:58;99732.00;;;29.00
20092;BMP180;10205;49.678;6.560;2022-08-19T10:26:30;99729.00;;;29.10
20092;BMP180;10205;49.678;6.560;2022-08-19T10:28:57;99740.00;;;29.20
20092;BMP180;10205;49.678;6.560;2022-08-19T10:31:32;99732.00;;;29.20
20092;BMP180;10205;49.678;6.560;2022-08-19T10:34:01;99734.00;;;29.20
20092;BMP180;10205;49.678;6.560;2022-08-19T10:36:35;99725.00;;;29.30
20092;BMP180;10205;49.678;6.560;2022-08-19T10:39:08;99727.00;;;29.30
20092;BMP180;10205;49.678;6.560;2022-08-19T10:41:39;99727.00;;;29.40
20092;BMP180;10205;49.678;6.560;2022-08-19T10:44:12;99718.00;;;29.40
20092;BMP180;10205;49.678;6.560;2022-08-19T10:46:43;99712.00;;;29.50
20092;BMP180;10205;49.678;6.560;2022-08-19T10:49:12;99707.00;;;29.60
20092;BMP180;10205;49.678;6.560;2022-08-19T10:51:42;99711.00;;;29.70
20092;BMP180;10205;49.678;6.560;2022-08-19T10:54:27;99725.00;;;29.70
20092;BMP180;10205;49.678;6.560;2022-08-19T10:57:20;99719.00;;;29.80
20092;BMP180;10205;49.678;6.560;2022-08-19T10:59:49;99708.00;;;29.80
20092;BMP180;10205;49.678;6.560;2022-08-19T11:02:16;99710.00;;;29.90
20092;BMP180;10205;49.678;6.560;2022-08-19T11:04:44;99708.00;;;29.90
20092;BMP180;10205;49.678;6.560;2022-08-19T11:07:12;99700.00;;;30.00
20092;BMP180;10205;49.678;6.560;2022-08-19T11:09:45;99702.00;;;30.10
20092;BMP180;10205;49.678;6.560;2022-08-19T11:12:13;99700.00;;;30.10
20092;BMP180;10205;49.678;6.560;2022-08-19T11:14:41;99704.00;;;30.20
20092;BMP180;10205;49.678;6.560;2022-08-19T11:17:08;99705.00;;;30.20
20092;BMP180;10205;49.678;6.560;2022-08-19T11:19:37;99702.00;;;30.30
20092;BMP180;10205;49.678;6.560;2022-08-19T11:22:04;99707.00;;;30.30
20092;BMP180;10205;49.678;6.560;2022-08-19T11:24:36;99702.00;;;30.30
20092;BMP180;10205;49.678;6.560;2022-08-19T11:27:07;99698.00;;;30.40
20092;BMP180;10205;49.678;6.560;2022-08-19T11:29:36;99711.00;;;30.40
20092;BMP180;10205;49.678;6.560;2022-08-19T11:32:08;99705.00;;;30.50
20092;BMP180;10205;49.678;6.560;2022-08-19T11:34:36;99700.00;;;30.50
20092;BMP180;10205;49.678;6.560;2022-08-19T11:37:04;99701.00;;;30.60
20092;BMP180;10205;49.678;6.560;2022-08-19T11:39:35;99707.00;;;30.70
20092;BMP180;10205;49.678;6.560;2022-08-19T11:42:06;99704.00;;;30.70
20092;BMP180;10205;49.678;6.560;2022-08-19T11:44:54;99709.00;;;30.80
20092;BMP180;10205;49.678;6.560;2022-08-19T11:47:21;99703.00;;;30.90
20092;BMP180;10205;49.678;6.560;2022-08-19T11:49:49;99697.00;;;31.00
20092;BMP180;10205;49.678;6.560;2022-08-19T11:52:16;99706.00;;;31.00
20092;BMP180;10205;49.678;6.560;2022-08-19T11:54:45;99703.00;;;31.00
20092;BMP180;10205;49.678;6.560;2022-08-19T11:57:12;99716.00;;;31.10
20092;BMP180;10205;49.678;6.560;2022-08-19T11:59:42;99711.00;;;31.10
20092;BMP180;10205;49.678;6.560;2022-08-19T12:02:14;99714.00;;;31.10
20092;BMP180;10205;49.678;6.560;2022-08-19T12:04:41;99716.00;;;31.20
20092;BMP180;10205;49.678;6.560;2022-08-19T12:07:08;99699.00;;;31.20
20092;BMP180;10205;49.678;6.560;2022-08-19T12:09:36;99701.00;;;31.30
20092;BMP180;10205;49.678;6.560;2022-08-19T12:12:07;99703.00;;;31.40
20092;BMP180;10205;49.678;6.560;2022-08-19T12:14:35;99707.00;;;31.40
20092;BMP180;10205;49.678;6.560;2022-08-19T12:17:03;99707.00;;;31.50
20092;BMP180;10205;49.678;6.560;2022-08-19T12:19:33;99700.00;;;31.50
20092;BMP180;10205;49.678;6.560;2022-08-19T12:22:01;99713.00;;;31.60
20092;BMP180;10205;49.678;6.560;2022-08-19T12:24:30;99706.00;;;31.60
20092;BMP180;10205;49.678;6.560;2022-08-19T12:26:59;99703.00;;;31.60
20092;BMP180;10205;49.678;6.560;2022-08-19T12:29:29;99695.00;;;31.70
20092;BMP180;10205;49.678;6.560;2022-08-19T12:31:57;99696.00;;;31.80
20092;BMP180;10205;49.678;6.560;2022-08-19T12:34:37;99693.00;;;31.80
20092;BMP180;10205;49.678;6.560;2022-08-19T12:37:06;99693.00;;;31.80
20092;BMP180;10205;49.678;6.560;2022-08-19T12:39:39;99691.00;;;31.90
20092;BMP180;10205;49.678;6.560;2022-08-19T12:42:09;99694.00;;;31.90
20092;BMP180;10205;49.678;6.560;2022-08-19T12:44:40;99692.00;;;32.00
20092;BMP180;10205;49.678;6.560;2022-08-19T12:47:11;99704.00;;;32.00
20092;BMP180;10205;49.678;6.560;2022-08-19T12:49:40;99698.00;;;32.00
20092;BMP180;10205;49.678;6.560;2022-08-19T12:52:08;99690.00;;;32.10
20092;BMP180;10205;49.678;6.560;2022-08-19T12:54:37;99696.00;;;32.20
20092;BMP180;10205;49.678;6.560;2022-08-19T12:57:07;99702.00;;;32.20
20092;BMP180;10205;49.678;6.560;2022-08-19T12:59:38;99694.00;;;32.10
20092;BMP180;10205;49.678;6.560;2022-08-19T13:02:07;99688.00;;;32.10
20092;BMP180;10205;49.678;6.560;2022-08-19T13:04:35;99694.00;;;32.20
20092;BMP180;10205;49.678;6.560;2022-08-19T13:07:06;99690.00;;;32.20
20092;BMP180;10205;49.678;6.560;2022-08-19T13:09:34;99691.00;;;32.20
20092;BMP180;10205;49.678;6.560;2022-08-19T13:12:03;99691.00;;;32.20
20092;BMP180;10205;49.678;6.560;2022-08-19T13:14:34;99694.00;;;32.30
20092;BMP180;10205;49.678;6.560;2022-08-19T13:17:02;99686.00;;;32.30
20092;BMP180;10205;49.678;6.560;2022-08-19T13:19:29;99682.00;;;32.30
20092;BMP180;10205;49.678;6.560;2022-08-19T13:21:57;99695.00;;;32.30
20092;BMP180;10205;49.678;6.560;2022-08-19T13:24:25;99703.00;;;32.30
20092;BMP180;10205;49.678;6.560;2022-08-19T13:26:52;99696.00;;;32.20
20092;BMP180;10205;49.678;6.560;2022-08-19T13:29:19;99695.00;;;32.20
20092;BMP180;10205;49.678;6.560;2022-08-19T13:32:05;99703.00;;;32.20
20092;BMP180;10205;49.678;6.560;2022-08-19T13:34:50;99695.00;;;32.20
20092;BMP180;10205;49.678;6.560;2022-08-19T13:37:17;99696.00;;;32.30
20092;BMP180;10205;49.678;6.560;2022-08-19T13:40:10;99688.00;;;32.40
20092;BMP180;10205;49.678;6.560;2022-08-19T13:42:38;99700.00;;;32.40
20092;BMP180;10205;49.678;6.560;2022-08-19T13:45:07;99694.00;;;32.50
20092;BMP180;10205;49.678;6.560;2022-08-19T13:47:36;99692.00;;;32.50
20092;BMP180;10205;49.678;6.560;2022-08-19T13:50:09;99687.00;;;32.60
20092;BMP180;10205;49.678;6.560;2022-08-19T13:52:37;99677.00;;;32.60
20092;BMP180;10205;49.678;6.560;2022-08-19T13:55:06;99687.00;;;32.70
20092;BMP180;10205;49.678;6.560;2022-08-19T13:57:34;99684.00;;;32.70
20092;BMP180;10205;49.678;6.560;2022-08-19T14:00:06;99685.00;;;32.70
20092;BMP180;10205;49.678;6.560;2022-08-19T14:02:36;99687.00;;;32.70
20092;BMP180;10205;49.678;6.560;2022-08-19T14:05:06;99691.00;;;32.70
20092;BMP180;10205;49.678;6.560;2022-08-19T14:07:34;99684.00;;;32.70
20092;BMP180;10205;49.678;6.560;2022-08-19T14:10:02;99693.00;;;32.80
20092;BMP180;10205;49.678;6.560;2022-08-19T14:12:30;99688.00;;;32.80
20092;BMP180;10205;49.678;6.560;2022-08-19T14:14:58;99682.00;;;32.80
20092;BMP180;10205;49.678;6.560;2022-08-19T14:17:28;99678.00;;;32.80
20092;BMP180;10205;49.678;6.560;2022-08-19T14:19:59;99677.00;;;32.80
20092;BMP180;10205;49.678;6.560;2022-08-19T14:22:33;99695.00;;;32.80
20092;BMP180;10205;49.678;6.560;2022-08-19T14:25:00;99687.00;;;32.80
20092;BMP180;10205;49.678;6.560;2022-08-19T14:27:27;99689.00;;;32.70